createdAt,value
2023-01-13T00:08:28.487Z,99833.44
2023-01-13T00:18:33.583Z,99826.16
2023-01-13T00:28:37.470Z,99819.19
2023-01-13T00:38:43.277Z,99808.88
2023-01-13T00:48:47.202Z,99810.16
2023-01-13T00:58:52.385Z,99797.88
2023-01-13T01:08:56.879Z,99793.06
2023-01-13T01:19:02.698Z,99797.50
2023-01-13T01:29:05.749Z,99855.81
2023-01-13T01:49:34.884Z,99861.34
2023-01-13T01:59:40.895Z,99867.75
2023-01-13T02:09:44.757Z,99884.00
2023-01-13T02:20:29.743Z,99858.78
2023-01-13T02:31:01.471Z,99838.41
2023-01-13T02:41:35.087Z,99847.09
2023-01-13T02:51:42.427Z,99847.56
2023-01-13T03:01:46.628Z,99839.00
2023-01-13T03:11:58.025Z,99849.59
2023-01-13T03:22:09.785Z,99850.97
2023-01-13T03:32:19.535Z,99820.88
2023-01-13T03:42:26.176Z,99821.91
2023-01-13T03:52:34.584Z,99833.38
2023-01-13T04:02:46.315Z,99821.59
2023-01-13T04:13:04.314Z,99826.59
2023-01-13T04:23:07.697Z,99836.13
2023-01-13T04:33:12.812Z,99823.63
2023-01-13T04:43:16.105Z,99840.63
2023-01-13T04:53:20.490Z,99832.13
2023-01-13T05:03:24.377Z,99847.66
2023-01-13T05:13:46.294Z,99833.69
2023-01-13T05:24:12.121Z,99827.22
2023-01-13T05:34:16.667Z,99828.00
2023-01-13T05:44:19.571Z,99849.03
2023-01-13T05:54:24.055Z,99853.75
2023-01-13T06:04:27.053Z,99862.13
2023-01-13T06:14:40.249Z,99870.69
2023-01-13T06:24:44.205Z,99884.28
2023-01-13T06:34:52.796Z,99901.69
2023-01-13T06:44:55.969Z,99914.44
2023-01-13T06:55:00.272Z,99903.25
2023-01-13T07:05:03.391Z,99923.81
2023-01-13T07:15:21.370Z,99939.44
2023-01-13T07:25:25.133Z,99947.34
2023-01-13T07:35:29.721Z,99956.91
2023-01-13T07:45:33.163Z,99970.22
2023-01-13T07:55:42.615Z,99992.16
2023-01-13T08:05:46.705Z,99983.97
2023-01-13T08:15:53.037Z,99998.91
2023-01-13T08:25:56.289Z,100000.28
2023-01-13T08:36:03.830Z,100003.50
2023-01-13T08:47:00.216Z,99982.97
2023-01-13T08:57:04.626Z,100012.63
2023-01-13T09:07:07.517Z,100037.88
2023-01-13T09:17:12.381Z,100038.81
2023-01-13T09:27:16.986Z,100035.56
2023-01-13T09:37:21.350Z,100039.38
2023-01-13T09:47:29.793Z,100053.41
2023-01-13T09:57:38.158Z,100055.72
2023-01-13T10:07:48.411Z,100033.34
2023-01-13T10:17:59.640Z,100032.81
2023-01-13T10:28:09.556Z,100025.47
2023-01-13T10:38:19.839Z,100052.44
2023-01-13T10:48:47.031Z,100059.31
2023-01-13T10:58:51.659Z,100059.81
2023-01-13T11:08:58.215Z,100068.97
2023-01-13T11:19:12.861Z,100084.72
2023-01-13T11:29:25.277Z,100087.06
2023-01-13T11:39:44.468Z,100098.69
2023-01-13T11:49:48.978Z,100112.22
2023-01-13T12:00:09.520Z,100113.59
2023-01-13T12:10:29.032Z,100148.72
2023-01-13T12:20:44.804Z,100137.56
2023-01-13T12:30:51.999Z,100122.31
2023-01-13T12:41:07.620Z,100124.91
2023-01-13T12:51:23.169Z,100120.94
2023-01-13T13:01:37.078Z,100122.72
2023-01-13T13:12:03.110Z,100138.81
2023-01-13T13:22:36.158Z,100123.34
2023-01-13T13:32:57.495Z,100139.00
2023-01-13T13:43:19.235Z,100154.22
2023-01-13T13:53:24.816Z,100179.66
2023-01-13T14:03:32.331Z,100180.78
2023-01-13T14:13:35.402Z,100209.94
2023-01-13T14:23:39.680Z,100222.03
2023-01-13T14:33:46.001Z,100256.78
2023-01-13T14:43:51.830Z,100305.38
2023-01-13T14:53:58.075Z,100303.50
2023-01-13T15:04:18.375Z,100315.97
2023-01-13T15:14:27.180Z,100330.53
2023-01-13T15:24:32.103Z,100350.34
2023-01-13T15:34:35.128Z,100355.25
2023-01-13T15:44:58.008Z,100368.13
2023-01-13T15:55:01.167Z,100378.28
2023-01-13T16:05:06.227Z,100400.78
2023-01-13T16:15:11.039Z,100405.63
2023-01-13T16:25:20.283Z,100432.09
2023-01-13T16:35:24.052Z,100447.22
2023-01-13T16:45:29.148Z,100451.81
2023-01-13T16:55:32.401Z,100454.31
2023-01-13T17:05:39.499Z,100468.69
2023-01-13T17:15:42.743Z,100489.19
2023-01-13T17:25:47.049Z,100506.19
2023-01-13T17:35:50.121Z,100531.91
2023-01-13T17:45:54.923Z,100540.59
2023-01-13T17:55:58.297Z,100559.31
2023-01-13T18:06:05.347Z,100580.69
2023-01-13T18:16:11.001Z,100595.75
2023-01-13T18:26:38.542Z,100599.44
2023-01-13T18:36:41.778Z,100608.16
2023-01-13T18:46:46.432Z,100635.50
2023-01-13T18:56:50.362Z,100640.78
2023-01-13T19:07:00.427Z,100644.19
2023-01-13T19:17:06.367Z,100652.66
2023-01-13T19:27:11.274Z,100667.25
2023-01-13T19:37:14.721Z,100679.13
2023-01-13T19:47:20.238Z,100688.53
2023-01-13T19:57:23.321Z,100700.28
2023-01-13T20:07:29.341Z,100698.50
2023-01-13T20:17:32.111Z,100724.28
2023-01-13T20:27:36.595Z,100733.31
2023-01-13T20:37:41.067Z,100735.28
2023-01-13T20:47:45.773Z,100720.75
2023-01-13T20:57:50.240Z,100755.19
2023-01-13T21:07:54.521Z,100758.38
2023-01-13T21:18:16.297Z,100767.81
2023-01-13T21:28:22.469Z,100767.00
2023-01-13T21:38:27.070Z,100773.09
2023-01-13T21:48:31.367Z,100763.63
2023-01-13T21:58:34.529Z,100789.13
2023-01-13T22:08:39.478Z,100798.56
2023-01-13T22:18:43.861Z,100818.28
2023-01-13T22:28:48.399Z,100824.38
2023-01-13T22:38:54.799Z,100827.97
2023-01-13T22:48:59.194Z,100829.69
2023-01-13T22:59:04.655Z,100852.84
2023-01-13T23:09:10.196Z,100854.59
2023-01-13T23:19:15.018Z,100849.53
2023-01-13T23:29:19.606Z,100859.88
2023-01-13T23:39:24.149Z,100867.56
2023-01-13T23:49:28.751Z,100891.50
2023-01-13T23:59:31.983Z,100899.19
